sensor_id;sensor_type;location;lat;lon;timestamp;pressure;altitude;pressure_sealevel;temperature;humidity
51297;BME280;37380;45.186;9.792;2023-07-13T00:01:32;100793.75;;;22.44;100.00
51297;BME280;37380;45.186;9.792;2023-07-13T00:03:59;100757.66;;;22.19;100.00
51297;BME280;37380;45.186;9.792;2023-07-13T00:06:27;100748.66;;;22.30;100.00
51297;BME280;37380;45.186;9.792;2023-07-13T00:08:57;100805.03;;;22.63;100.00
51297;BME280;37380;45.186;9.792;2023-07-13T00:11:24;100807.75;;;22.57;100.00
51297;BME280;37380;45.186;9.792;2023-07-13T00:13:51;100811.25;;;22.62;100.00
51297;BME280;37380;45.186;9.792;2023-07-13T00:16:18;100767.13;;;22.44;100.00
51297;BME280;37380;45.186;9.792;2023-07-13T00:18:46;100801.13;;;22.16;100.00
51297;BME280;37380;45.186;9.792;2023-07-13T00:21:14;100787.09;;;22.03;100.00
51297;BME280;37380;45.186;9.792;2023-07-13T00:23:42;100811.59;;;22.36;100.00
51297;BME280;37380;45.186;9.792;2023-07-13T00:26:10;100816.78;;;22.47;100.00
51297;BME280;37380;45.186;9.792;2023-07-13T00:28:39;100696.84;;;21.86;100.00
51297;BME280;37380;45.186;9.792;2023-07-13T00:31:07;100767.19;;;22.38;100.00
51297;BME280;37380;45.186;9.792;2023-07-13T00:33:35;100788.19;;;22.61;100.00
51297;BME280;37380;45.186;9.792;2023-07-13T00:36:03;100743.25;;;22.36;100.00
51297;BME280;37380;45.186;9.792;2023-07-13T00:38:30;100778.38;;;22.66;100.00
51297;BME280;37380;45.186;9.792;2023-07-13T00:41:04;100796.84;;;22.77;100.00
51297;BME280;37380;45.186;9.792;2023-07-13T00:44:05;100790.72;;;22.69;100.00
51297;BME280;37380;45.186;9.792;2023-07-13T00:46:50;100774.09;;;22.54;100.00
51297;BME280;37380;45.186;9.792;2023-07-13T00:49:20;100750.22;;;22.47;100.00
51297;BME280;37380;45.186;9.792;2023-07-13T00:54:20;100795.97;;;22.76;100.00
51297;BME280;37380;45.186;9.792;2023-07-13T00:56:51;100739.44;;;22.56;100.00
51297;BME280;37380;45.186;9.792;2023-07-13T00:59:19;100733.97;;;22.65;100.00
51297;BME280;37380;45.186;9.792;2023-07-13T01:01:48;100710.09;;;22.60;100.00
51297;BME280;37380;45.186;9.792;2023-07-13T01:04:24;100774.47;;;22.89;100.00
51297;BME280;37380;45.186;9.792;2023-07-13T01:07:24;100754.66;;;22.46;100.00
51297;BME280;37380;45.186;9.792;2023-07-13T01:09:52;100753.88;;;22.36;100.00
51297;BME280;37380;45.186;9.792;2023-07-13T01:12:19;100757.38;;;22.42;100.00
51297;BME280;37380;45.186;9.792;2023-07-13T01:14:46;100732.94;;;22.09;100.00
51297;BME280;37380;45.186;9.792;2023-07-13T01:17:13;100754.13;;;22.18;100.00
51297;BME280;37380;45.186;9.792;2023-07-13T01:19:44;100765.97;;;22.62;100.00
51297;BME280;37380;45.186;9.792;2023-07-13T01:22:17;100758.84;;;22.64;100.00
51297;BME280;37380;45.186;9.792;2023-07-13T01:24:47;100765.78;;;22.74;100.00
51297;BME280;37380;45.186;9.792;2023-07-13T01:27:19;100768.25;;;22.88;100.00
51297;BME280;37380;45.186;9.792;2023-07-13T01:29:47;100753.78;;;22.46;100.00
51297;BME280;37380;45.186;9.792;2023-07-13T01:32:24;100730.84;;;22.34;100.00
51297;BME280;37380;45.186;9.792;2023-07-13T01:34:54;100789.25;;;22.48;100.00
51297;BME280;37380;45.186;9.792;2023-07-13T01:37:23;100787.75;;;22.28;100.00
51297;BME280;37380;45.186;9.792;2023-07-13T01:39:58;100724.41;;;21.78;100.00
51297;BME280;37380;45.186;9.792;2023-07-13T01:42:52;100775.56;;;22.03;100.00
51297;BME280;37380;45.186;9.792;2023-07-13T01:45:46;100800.00;;;22.40;100.00
51297;BME280;37380;45.186;9.792;2023-07-13T01:48:13;100745.25;;;22.19;100.00
51297;BME280;37380;45.186;9.792;2023-07-13T01:50:41;100784.44;;;22.02;100.00
51297;BME280;37380;45.186;9.792;2023-07-13T01:53:08;100715.66;;;21.68;100.00
51297;BME280;37380;45.186;9.792;2023-07-13T01:55:35;100753.06;;;22.34;100.00
51297;BME280;37380;45.186;9.792;2023-07-13T01:58:03;100758.13;;;22.54;100.00
51297;BME280;37380;45.186;9.792;2023-07-13T02:00:31;100773.03;;;22.65;100.00
51297;BME280;37380;45.186;9.792;2023-07-13T02:02:58;100744.72;;;22.59;100.00
51297;BME280;37380;45.186;9.792;2023-07-13T02:05:25;100729.66;;;22.56;100.00
51297;BME280;37380;45.186;9.792;2023-07-13T02:07:52;100707.84;;;22.31;100.00
51297;BME280;37380;45.186;9.792;2023-07-13T02:10:20;100766.84;;;22.63;100.00
51297;BME280;37380;45.186;9.792;2023-07-13T02:12:48;100687.22;;;21.76;100.00
51297;BME280;37380;45.186;9.792;2023-07-13T02:15:16;100786.75;;;22.34;100.00
51297;BME280;37380;45.186;9.792;2023-07-13T02:17:43;100715.25;;;22.03;100.00
51297;BME280;37380;45.186;9.792;2023-07-13T02:20:18;100718.19;;;21.80;100.00
51297;BME280;37380;45.186;9.792;2023-07-13T02:23:20;100773.84;;;21.99;100.00
51297;BME280;37380;45.186;9.792;2023-07-13T02:26:21;100771.09;;;22.06;100.00
51297;BME280;37380;45.186;9.792;2023-07-13T02:29:22;100781.41;;;21.52;100.00
51297;BME280;37380;45.186;9.792;2023-07-13T02:32:16;100756.69;;;21.42;100.00
51297;BME280;37380;45.186;9.792;2023-07-13T02:34:44;100795.47;;;21.65;100.00
51297;BME280;37380;45.186;9.792;2023-07-13T02:37:11;100794.00;;;21.27;100.00
51297;BME280;37380;45.186;9.792;2023-07-13T02:39:45;100772.75;;;21.24;100.00
51297;BME280;37380;45.186;9.792;2023-07-13T02:42:47;100764.78;;;21.22;100.00
51297;BME280;37380;45.186;9.792;2023-07-13T02:45:45;100780.66;;;21.36;100.00
51297;BME280;37380;45.186;9.792;2023-07-13T02:48:13;100807.03;;;21.58;100.00
51297;BME280;37380;45.186;9.792;2023-07-13T02:50:41;100747.00;;;21.29;100.00
51297;BME280;37380;45.186;9.792;2023-07-13T02:53:08;100765.53;;;21.43;100.00
51297;BME280;37380;45.186;9.792;2023-07-13T02:55:35;100782.41;;;21.34;100.00
51297;BME280;37380;45.186;9.792;2023-07-13T02:58:02;100806.31;;;21.42;100.00
51297;BME280;37380;45.186;9.792;2023-07-13T03:00:29;100747.38;;;20.83;100.00
51297;BME280;37380;45.186;9.792;2023-07-13T03:03:03;100751.69;;;20.96;100.00
51297;BME280;37380;45.186;9.792;2023-07-13T03:06:04;100820.53;;;21.30;100.00
51297;BME280;37380;45.186;9.792;2023-07-13T03:08:58;100799.41;;;21.13;100.00
51297;BME280;37380;45.186;9.792;2023-07-13T03:11:29;100817.81;;;21.42;100.00
51297;BME280;37380;45.186;9.792;2023-07-13T03:14:07;100705.66;;;20.99;100.00
51297;BME280;37380;45.186;9.792;2023-07-13T03:16:37;100812.31;;;21.64;100.00
51297;BME280;37380;45.186;9.792;2023-07-13T03:19:04;100807.78;;;21.75;100.00
51297;BME280;37380;45.186;9.792;2023-07-13T03:21:31;100796.13;;;21.88;100.00
51297;BME280;37380;45.186;9.792;2023-07-13T03:23:58;100798.78;;;21.88;100.00
51297;BME280;37380;45.186;9.792;2023-07-13T03:26:25;100789.97;;;21.83;100.00
51297;BME280;37380;45.186;9.792;2023-07-13T03:28:52;100790.84;;;21.84;100.00
51297;BME280;37380;45.186;9.792;2023-07-13T03:31:26;100826.13;;;22.03;100.00
51297;BME280;37380;45.186;9.792;2023-07-13T03:33:56;100813.81;;;21.94;100.00
51297;BME280;37380;45.186;9.792;2023-07-13T03:36:27;100834.66;;;22.35;100.00
51297;BME280;37380;45.186;9.792;2023-07-13T03:38:59;100797.47;;;22.28;100.00
51297;BME280;37380;45.186;9.792;2023-07-13T03:41:42;100813.25;;;22.46;100.00
51297;BME280;37380;45.186;9.792;2023-07-13T03:44:36;100809.78;;;22.36;100.00
51297;BME280;37380;45.186;9.792;2023-07-13T03:47:03;100762.19;;;22.09;100.00
51297;BME280;37380;45.186;9.792;2023-07-13T03:49:32;100760.41;;;22.09;100.00
51297;BME280;37380;45.186;9.792;2023-07-13T03:51:59;100816.06;;;22.32;100.00
51297;BME280;37380;45.186;9.792;2023-07-13T03:54:27;100803.72;;;22.27;100.00
51297;BME280;37380;45.186;9.792;2023-07-13T03:56:54;100798.44;;;22.22;100.00
51297;BME280;37380;45.186;9.792;2023-07-13T03:59:22;100762.03;;;22.24;100.00
51297;BME280;37380;45.186;9.792;2023-07-13T04:01:49;100793.72;;;22.46;100.00
51297;BME280;37380;45.186;9.792;2023-07-13T04:04:16;100754.41;;;21.93;100.00
51297;BME280;37380;45.186;9.792;2023-07-13T04:06:43;100754.34;;;22.00;100.00
51297;BME280;37380;45.186;9.792;2023-07-13T04:09:11;100819.97;;;22.73;100.00
51297;BME280;37380;45.186;9.792;2023-07-13T04:11:38;100720.31;;;22.26;100.00
51297;BME280;37380;45.186;9.792;2023-07-13T04:14:06;100821.25;;;23.13;100.00
51297;BME280;37380;45.186;9.792;2023-07-13T04:16:33;100774.41;;;22.92;100.00
51297;BME280;37380;45.186;9.792;2023-07-13T04:19:01;100794.00;;;22.91;100.00
51297;BME280;37380;45.186;9.792;2023-07-13T04:21:29;100842.78;;;23.53;100.00
51297;BME280;37380;45.186;9.792;2023-07-13T04:23:57;100793.91;;;23.54;100.00
51297;BME280;37380;45.186;9.792;2023-07-13T04:26:24;100802.00;;;23.48;100.00
51297;BME280;37380;45.186;9.792;2023-07-13T04:28:52;100815.53;;;23.36;100.00
51297;BME280;37380;45.186;9.792;2023-07-13T04:31:19;100799.72;;;23.25;100.00
51297;BME280;37380;45.186;9.792;2023-07-13T04:33:47;100853.22;;;23.68;100.00
51297;BME280;37380;45.186;9.792;2023-07-13T04:36:15;100861.38;;;24.12;100.00
51297;BME280;37380;45.186;9.792;2023-07-13T04:38:43;100839.25;;;24.05;100.00
51297;BME280;37380;45.186;9.792;2023-07-13T04:41:17;100821.34;;;24.12;100.00
51297;BME280;37380;45.186;9.792;2023-07-13T04:44:18;100790.56;;;23.91;100.00
51297;BME280;37380;45.186;9.792;2023-07-13T04:47:19;100786.81;;;24.46;100.00
51297;BME280;37380;45.186;9.792;2023-07-13T04:50:20;100810.28;;;24.74;100.00
51297;BME280;37380;45.186;9.792;2023-07-13T04:53:21;100847.72;;;25.14;100.00
51297;BME280;37380;45.186;9.792;2023-07-13T04:56:15;100835.47;;;25.41;100.00
51297;BME280;37380;45.186;9.792;2023-07-13T04:58:42;100832.63;;;25.49;100.00
51297;BME280;37380;45.186;9.792;2023-07-13T05:01:09;100828.34;;;25.03;100.00
51297;BME280;37380;45.186;9.792;2023-07-13T05:03:37;100805.59;;;23.98;100.00
51297;BME280;37380;45.186;9.792;2023-07-13T05:06:06;100841.56;;;24.24;100.00
51297;BME280;37380;45.186;9.792;2023-07-13T05:08:33;100825.44;;;24.30;100.00
51297;BME280;37380;45.186;9.792;2023-07-13T05:11:01;100809.06;;;24.03;100.00
51297;BME280;37380;45.186;9.792;2023-07-13T05:13:29;100817.44;;;23.82;100.00
51297;BME280;37380;45.186;9.792;2023-07-13T05:15:58;100858.78;;;24.54;100.00
51297;BME280;37380;45.186;9.792;2023-07-13T05:18:25;100812.72;;;24.43;100.00
51297;BME280;37380;45.186;9.792;2023-07-13T05:21:04;100822.59;;;24.37;100.00
51297;BME280;37380;45.186;9.792;2023-07-13T05:23:32;100829.78;;;24.79;100.00
51297;BME280;37380;45.186;9.792;2023-07-13T05:26:07;100790.06;;;24.62;100.00
51297;BME280;37380;45.186;9.792;2023-07-13T05:29:08;100830.72;;;24.31;100.00
51297;BME280;37380;45.186;9.792;2023-07-13T05:32:02;100807.47;;;24.38;100.00
51297;BME280;37380;45.186;9.792;2023-07-13T05:34:30;100833.75;;;24.59;100.00
51297;BME280;37380;45.186;9.792;2023-07-13T05:36:57;100672.53;;;23.32;100.00
51297;BME280;37380;45.186;9.792;2023-07-13T05:39:31;100809.09;;;24.00;100.00
51297;BME280;37380;45.186;9.792;2023-07-13T05:42:32;100807.75;;;24.23;100.00
51297;BME280;37380;45.186;9.792;2023-07-13T05:45:26;100803.03;;;23.92;100.00
51297;BME280;37380;45.186;9.792;2023-07-13T05:47:53;100812.09;;;23.82;100.00
51297;BME280;37380;45.186;9.792;2023-07-13T05:50:20;100783.22;;;23.01;100.00
51297;BME280;37380;45.186;9.792;2023-07-13T05:52:48;100777.94;;;22.97;100.00
51297;BME280;37380;45.186;9.792;2023-07-13T05:55:14;100855.66;;;23.84;100.00
51297;BME280;37380;45.186;9.792;2023-07-13T05:57:42;100776.38;;;23.38;100.00
51297;BME280;37380;45.186;9.792;2023-07-13T06:00:09;100834.00;;;23.48;100.00
51297;BME280;37380;45.186;9.792;2023-07-13T06:02:40;100775.63;;;23.30;100.00
51297;BME280;37380;45.186;9.792;2023-07-13T06:05:14;100822.53;;;23.41;100.00
51297;BME280;37380;45.186;9.792;2023-07-13T06:08:15;100832.13;;;23.55;100.00
51297;BME280;37380;45.186;9.792;2023-07-13T06:11:18;100860.25;;;23.76;100.00
51297;BME280;37380;45.186;9.792;2023-07-13T06:14:13;100839.06;;;23.63;100.00
51297;BME280;37380;45.186;9.792;2023-07-13T06:16:40;100865.34;;;23.32;100.00
51297;BME280;37380;45.186;9.792;2023-07-13T06:19:08;100892.81;;;23.39;100.00
51297;BME280;37380;45.186;9.792;2023-07-13T06:21:35;100828.34;;;23.12;100.00
51297;BME280;37380;45.186;9.792;2023-07-13T06:24:02;100850.91;;;23.47;100.00
51297;BME280;37380;45.186;9.792;2023-07-13T06:26:36;100860.56;;;23.54;100.00
51297;BME280;37380;45.186;9.792;2023-07-13T06:29:37;100868.13;;;23.83;100.00
51297;BME280;37380;45.186;9.792;2023-07-13T06:32:32;100849.56;;;23.76;100.00
51297;BME280;37380;45.186;9.792;2023-07-13T06:34:59;100775.53;;;23.36;100.00
51297;BME280;37380;45.186;9.792;2023-07-13T06:37:26;100863.03;;;23.68;100.00
51297;BME280;37380;45.186;9.792;2023-07-13T06:40:00;100829.09;;;23.78;100.00
51297;BME280;37380;45.186;9.792;2023-07-13T06:43:01;100857.25;;;23.94;100.00
51297;BME280;37380;45.186;9.792;2023-07-13T06:46:02;100879.16;;;24.13;100.00
51297;BME280;37380;45.186;9.792;2023-07-13T06:49:03;100859.59;;;24.12;100.00
51297;BME280;37380;45.186;9.792;2023-07-13T06:52:04;100881.31;;;23.91;100.00
51297;BME280;37380;45.186;9.792;2023-07-13T06:55:05;100856.66;;;23.19;100.00
51297;BME280;37380;45.186;9.792;2023-07-13T06:57:59;100875.44;;;24.22;100.00
51297;BME280;37380;45.186;9.792;2023-07-13T07:00:53;100890.84;;;24.06;100.00
51297;BME280;37380;45.186;9.792;2023-07-13T07:03:20;100883.06;;;24.42;100.00
51297;BME280;37380;45.186;9.792;2023-07-13T07:05:48;100801.28;;;24.34;100.00
51297;BME280;37380;45.186;9.792;2023-07-13T07:08:21;100861.44;;;24.07;100.00
51297;BME280;37380;45.186;9.792;2023-07-13T07:11:24;100869.91;;;24.31;100.00
51297;BME280;37380;45.186;9.792;2023-07-13T07:14:19;100830.53;;;24.44;100.00
51297;BME280;37380;45.186;9.792;2023-07-13T07:17:20;100816.72;;;24.63;100.00
51297;BME280;37380;45.186;9.792;2023-07-13T07:20:14;100842.19;;;24.36;100.00
51297;BME280;37380;45.186;9.792;2023-07-13T07:22:41;100808.25;;;23.98;100.00
51297;BME280;37380;45.186;9.792;2023-07-13T07:25:15;100844.44;;;24.13;100.00
51297;BME280;37380;45.186;9.792;2023-07-13T07:28:16;100898.91;;;24.52;100.00
51297;BME280;37380;45.186;9.792;2023-07-13T07:31:29;100910.63;;;24.42;100.00
51297;BME280;37380;45.186;9.792;2023-07-13T07:34:34;100894.59;;;24.45;100.00
51297;BME280;37380;45.186;9.792;2023-07-13T07:37:28;100923.19;;;24.37;100.00
51297;BME280;37380;45.186;9.792;2023-07-13T07:40:05;100865.81;;;24.11;100.00
51297;BME280;37380;45.186;9.792;2023-07-13T07:43:11;100917.63;;;24.52;100.00
51297;BME280;37380;45.186;9.792;2023-07-13T07:46:05;100891.91;;;24.45;100.00
51297;BME280;37380;45.186;9.792;2023-07-13T07:48:40;100900.03;;;24.39;100.00
51297;BME280;37380;45.186;9.792;2023-07-13T07:51:41;100917.50;;;24.58;100.00
51297;BME280;37380;45.186;9.792;2023-07-13T07:54:35;100862.88;;;24.27;100.00
51297;BME280;37380;45.186;9.792;2023-07-13T07:57:05;100839.13;;;23.60;100.00
51297;BME280;37380;45.186;9.792;2023-07-13T07:59:36;100891.69;;;24.09;100.00
51297;BME280;37380;45.186;9.792;2023-07-13T08:02:09;100923.31;;;24.31;100.00
51297;BME280;37380;45.186;9.792;2023-07-13T08:04:57;100886.16;;;24.18;100.00
51297;BME280;37380;45.186;9.792;2023-07-13T08:07:27;100887.50;;;24.44;100.00
51297;BME280;37380;45.186;9.792;2023-07-13T08:10:01;100863.69;;;24.30;100.00
51297;BME280;37380;45.186;9.792;2023-07-13T08:13:02;100878.56;;;24.45;100.00
51297;BME280;37380;45.186;9.792;2023-07-13T08:15:36;100891.09;;;24.40;100.00
51297;BME280;37380;45.186;9.792;2023-07-13T08:18:03;100815.34;;;23.99;100.00
51297;BME280;37380;45.186;9.792;2023-07-13T08:20:30;100829.09;;;23.78;100.00
51297;BME280;37380;45.186;9.792;2023-07-13T08:22:57;100861.78;;;23.89;100.00
51297;BME280;37380;45.186;9.792;2023-07-13T08:25:24;100888.94;;;24.12;100.00
51297;BME280;37380;45.186;9.792;2023-07-13T08:27:51;100839.72;;;23.79;100.00
51297;BME280;37380;45.186;9.792;2023-07-13T08:30:18;100905.56;;;24.28;100.00
51297;BME280;37380;45.186;9.792;2023-07-13T08:32:46;100771.94;;;23.88;100.00
51297;BME280;37380;45.186;9.792;2023-07-13T08:35:13;100879.63;;;24.35;100.00
51297;BME280;37380;45.186;9.792;2023-07-13T08:37:40;100834.19;;;23.91;100.00
51297;BME280;37380;45.186;9.792;2023-07-13T08:40:14;100884.13;;;23.83;100.00
51297;BME280;37380;45.186;9.792;2023-07-13T08:43:23;100873.81;;;23.59;100.00
51297;BME280;37380;45.186;9.792;2023-07-13T08:46:26;100939.19;;;24.38;100.00
51297;BME280;37380;45.186;9.792;2023-07-13T08:49:29;100906.56;;;23.71;100.00
51297;BME280;37380;45.186;9.792;2023-07-13T08:52:34;100864.31;;;23.42;100.00
51297;BME280;37380;45.186;9.792;2023-07-13T08:55:31;100927.75;;;23.81;100.00
51297;BME280;37380;45.186;9.792;2023-07-13T08:58:10;100932.34;;;23.69;100.00
51297;BME280;37380;45.186;9.792;2023-07-13T09:03:23;100959.88;;;24.26;100.00
51297;BME280;37380;45.186;9.792;2023-07-13T09:05:58;100878.28;;;24.59;100.00
51297;BME280;37380;45.186;9.792;2023-07-13T09:08:49;100964.44;;;25.15;100.00
51297;BME280;37380;45.186;9.792;2023-07-13T09:17:14;100929.25;;;24.93;100.00
51297;BME280;37380;45.186;9.792;2023-07-13T09:19:47;100952.06;;;25.10;100.00
51297;BME280;37380;45.186;9.792;2023-07-13T09:22:19;100959.81;;;25.25;100.00
51297;BME280;37380;45.186;9.792;2023-07-13T09:27:29;100951.25;;;25.04;100.00
51297;BME280;37380;45.186;9.792;2023-07-13T09:32:45;100933.53;;;25.42;100.00
51297;BME280;37380;45.186;9.792;2023-07-13T09:35:20;100960.38;;;26.14;100.00
51297;BME280;37380;45.186;9.792;2023-07-13T09:37:49;100980.41;;;25.20;100.00
51297;BME280;37380;45.186;9.792;2023-07-13T09:44:27;100927.16;;;25.07;100.00
51297;BME280;37380;45.186;9.792;2023-07-13T09:46:57;100957.34;;;25.55;100.00
51297;BME280;37380;45.186;9.792;2023-07-13T09:49:35;100921.47;;;24.81;100.00
51297;BME280;37380;45.186;9.792;2023-07-13T09:52:43;100974.56;;;25.41;100.00
51297;BME280;37380;45.186;9.792;2023-07-13T09:55:39;100897.84;;;24.61;100.00
51297;BME280;37380;45.186;9.792;2023-07-13T09:58:13;100956.72;;;25.00;100.00
51297;BME280;37380;45.186;9.792;2023-07-13T10:00:41;100954.59;;;24.74;100.00
51297;BME280;37380;45.186;9.792;2023-07-13T10:03:21;100931.00;;;24.49;100.00
51297;BME280;37380;45.186;9.792;2023-07-13T10:05:51;100965.38;;;25.14;100.00
51297;BME280;37380;45.186;9.792;2023-07-13T10:08:23;100971.81;;;25.02;100.00
51297;BME280;37380;45.186;9.792;2023-07-13T10:10:59;100984.41;;;25.39;100.00
51297;BME280;37380;45.186;9.792;2023-07-13T10:13:33;100925.97;;;25.60;100.00
51297;BME280;37380;45.186;9.792;2023-07-13T10:16:07;100947.16;;;26.06;100.00
51297;BME280;37380;45.186;9.792;2023-07-13T10:18:55;100965.91;;;26.42;100.00
51297;BME280;37380;45.186;9.792;2023-07-13T10:21:28;100963.75;;;26.87;100.00
51297;BME280;37380;45.186;9.792;2023-07-13T10:26:43;100955.91;;;27.11;100.00
51297;BME280;37380;45.186;9.792;2023-07-13T10:29:14;100920.38;;;26.40;100.00
51297;BME280;37380;45.186;9.792;2023-07-13T10:31:44;100945.81;;;26.58;100.00
51297;BME280;37380;45.186;9.792;2023-07-13T10:34:13;100949.72;;;26.12;100.00
51297;BME280;37380;45.186;9.792;2023-07-13T10:36:43;100939.97;;;26.75;100.00
51297;BME280;37380;45.186;9.792;2023-07-13T10:39:23;100935.88;;;26.93;100.00
51297;BME280;37380;45.186;9.792;2023-07-13T10:42:40;100928.94;;;28.02;100.00
51297;BME280;37380;45.186;9.792;2023-07-13T10:45:35;100907.69;;;27.67;100.00
51297;BME280;37380;45.186;9.792;2023-07-13T10:48:05;100929.56;;;28.35;100.00
51297;BME280;37380;45.186;9.792;2023-07-13T10:50:43;100930.03;;;28.73;100.00
51297;BME280;37380;45.186;9.792;2023-07-13T10:53:20;100845.13;;;27.37;100.00
51297;BME280;37380;45.186;9.792;2023-07-13T10:58:41;100866.78;;;28.37;95.56
51297;BME280;37380;45.186;9.792;2023-07-13T11:01:11;100905.94;;;29.17;87.18
51297;BME280;37380;45.186;9.792;2023-07-13T11:04:00;100833.28;;;28.95;82.95
51297;BME280;37380;45.186;9.792;2023-07-13T11:06:41;100894.28;;;29.18;83.92
51297;BME280;37380;45.186;9.792;2023-07-13T11:11:59;100882.94;;;30.38;77.98
51297;BME280;37380;45.186;9.792;2023-07-13T11:16:57;100895.56;;;31.15;72.14
51297;BME280;37380;45.186;9.792;2023-07-13T11:19:27;100907.69;;;31.44;71.30
51297;BME280;37380;45.186;9.792;2023-07-13T11:25:20;100901.47;;;31.97;66.64
51297;BME280;37380;45.186;9.792;2023-07-13T11:28:03;100848.75;;;31.35;63.83
51297;BME280;37380;45.186;9.792;2023-07-13T11:30:37;100884.47;;;31.21;67.03
51297;BME280;37380;45.186;9.792;2023-07-13T11:35:36;100908.50;;;30.89;71.20
51297;BME280;37380;45.186;9.792;2023-07-13T11:38:38;100881.28;;;31.13;66.50
51297;BME280;37380;45.186;9.792;2023-07-13T11:41:16;100877.44;;;30.81;67.60
51297;BME280;37380;45.186;9.792;2023-07-13T11:44:21;100853.16;;;30.21;71.81
51297;BME280;37380;45.186;9.792;2023-07-13T11:47:23;100849.81;;;29.51;74.11
51297;BME280;37380;45.186;9.792;2023-07-13T11:50:22;100852.81;;;29.44;75.46
51297;BME280;37380;45.186;9.792;2023-07-13T11:52:52;100834.03;;;29.20;75.45
51297;BME280;37380;45.186;9.792;2023-07-13T11:55:22;100830.38;;;28.29;81.56
51297;BME280;37380;45.186;9.792;2023-07-13T11:57:57;100846.25;;;28.35;81.14
51297;BME280;37380;45.186;9.792;2023-07-13T12:00:32;100777.38;;;28.57;79.41
51297;BME280;37380;45.186;9.792;2023-07-13T12:03:35;100838.03;;;28.39;73.15
51297;BME280;37380;45.186;9.792;2023-07-13T12:06:33;100842.44;;;29.56;75.01
51297;BME280;37380;45.186;9.792;2023-07-13T12:09:08;100838.03;;;29.54;67.66
51297;BME280;37380;45.186;9.792;2023-07-13T12:11:41;100830.44;;;30.06;69.17
51297;BME280;37380;45.186;9.792;2023-07-13T12:14:15;100822.47;;;30.44;65.08
51297;BME280;37380;45.186;9.792;2023-07-13T12:16:43;100831.44;;;30.04;66.54
51297;BME280;37380;45.186;9.792;2023-07-13T12:19:26;100846.22;;;29.73;72.39
51297;BME280;37380;45.186;9.792;2023-07-13T12:21:56;100829.50;;;29.44;67.18
51297;BME280;37380;45.186;9.792;2023-07-13T12:24:25;100839.94;;;29.30;67.16
51297;BME280;37380;45.186;9.792;2023-07-13T12:27:01;100853.03;;;29.39;71.71
51297;BME280;37380;45.186;9.792;2023-07-13T12:29:32;100843.81;;;29.87;69.66
51297;BME280;37380;45.186;9.792;2023-07-13T12:31:59;100830.41;;;29.43;70.09
51297;BME280;37380;45.186;9.792;2023-07-13T12:34:27;100860.09;;;29.20;73.90
51297;BME280;37380;45.186;9.792;2023-07-13T12:37:01;100851.84;;;29.68;79.10
51297;BME280;37380;45.186;9.792;2023-07-13T12:40:03;100804.91;;;29.74;80.61
51297;BME280;37380;45.186;9.792;2023-07-13T12:43:04;100805.16;;;29.03;78.18
51297;BME280;37380;45.186;9.792;2023-07-13T12:46:02;100836.16;;;28.88;86.02
51297;BME280;37380;45.186;9.792;2023-07-13T12:48:37;100794.94;;;29.33;79.48
51297;BME280;37380;45.186;9.792;2023-07-13T12:51:16;100816.28;;;29.38;72.86
51297;BME280;37380;45.186;9.792;2023-07-13T12:54:12;100801.81;;;29.83;76.38
51297;BME280;37380;45.186;9.792;2023-07-13T12:56:40;100802.69;;;30.04;74.19
51297;BME280;37380;45.186;9.792;2023-07-13T12:59:17;100754.13;;;29.00;86.10
51297;BME280;37380;45.186;9.792;2023-07-13T13:01:51;100804.22;;;29.69;84.01
51297;BME280;37380;45.186;9.792;2023-07-13T13:04:55;100813.22;;;29.25;88.92
51297;BME280;37380;45.186;9.792;2023-07-13T13:07:58;100761.91;;;29.30;81.46
51297;BME280;37380;45.186;9.792;2023-07-13T13:10:59;100799.19;;;30.02;79.46
51297;BME280;37380;45.186;9.792;2023-07-13T13:14:01;100795.84;;;30.16;77.78
51297;BME280;37380;45.186;9.792;2023-07-13T13:16:55;100817.47;;;29.53;82.59
51297;BME280;37380;45.186;9.792;2023-07-13T13:19:26;100822.19;;;29.46;78.54
51297;BME280;37380;45.186;9.792;2023-07-13T13:21:55;100817.69;;;29.69;78.51
51297;BME280;37380;45.186;9.792;2023-07-13T13:24:26;100807.16;;;29.85;78.07
51297;BME280;37380;45.186;9.792;2023-07-13T13:26:54;100833.81;;;29.91;76.64
51297;BME280;37380;45.186;9.792;2023-07-13T13:29:25;100833.44;;;29.78;78.66
51297;BME280;37380;45.186;9.792;2023-07-13T13:31:53;100845.75;;;29.19;80.19
51297;BME280;37380;45.186;9.792;2023-07-13T13:34:21;100814.69;;;29.54;78.67
51297;BME280;37380;45.186;9.792;2023-07-13T13:36:58;100793.47;;;29.69;78.31
51297;BME280;37380;45.186;9.792;2023-07-13T13:39:59;100772.44;;;29.34;80.03
51297;BME280;37380;45.186;9.792;2023-07-13T13:43:00;100822.97;;;29.28;76.86
51297;BME280;37380;45.186;9.792;2023-07-13T13:45:56;100838.84;;;29.78;72.20
51297;BME280;37380;45.186;9.792;2023-07-13T13:48:43;100807.47;;;29.97;73.47
51297;BME280;37380;45.186;9.792;2023-07-13T13:51:19;100830.91;;;29.95;74.03
51297;BME280;37380;45.186;9.792;2023-07-13T13:53:47;100796.44;;;28.73;76.69
51297;BME280;37380;45.186;9.792;2023-07-13T13:56:17;100836.94;;;29.16;76.70
51297;BME280;37380;45.186;9.792;2023-07-13T13:58:44;100826.09;;;29.39;76.82
51297;BME280;37380;45.186;9.792;2023-07-13T14:01:16;100804.88;;;29.53;75.07
51297;BME280;37380;45.186;9.792;2023-07-13T14:03:44;100824.59;;;29.76;74.67
51297;BME280;37380;45.186;9.792;2023-07-13T14:06:14;100822.28;;;30.08;72.80
51297;BME280;37380;45.186;9.792;2023-07-13T14:08:42;100813.59;;;30.01;68.95
51297;BME280;37380;45.186;9.792;2023-07-13T14:11:18;100823.94;;;29.69;70.76
51297;BME280;37380;45.186;9.792;2023-07-13T14:14:22;100779.97;;;30.10;67.35